createdAt,value
2018-08-28T00:01:05.266Z,16.63
2018-08-28T00:02:11.412Z,16.50
2018-08-28T00:03:17.072Z,16.49
2018-08-28T00:04:22.701Z,16.49
2018-08-28T00:05:28.676Z,16.50
2018-08-28T00:06:34.778Z,16.50
2018-08-28T00:07:41.841Z,16.49
2018-08-28T00:08:47.608Z,16.44
2018-08-28T00:09:53.624Z,16.42
2018-08-28T00:10:59.765Z,16.37
2018-08-28T00:12:05.171Z,16.15
2018-08-28T00:13:11.170Z,15.94
2018-08-28T00:14:17.220Z,15.92
2018-08-28T00:15:22.894Z,15.99
2018-08-28T00:16:28.832Z,15.95
2018-08-28T00:17:34.876Z,16.03
2018-08-28T00:18:40.944Z,16.04
2018-08-28T00:19:46.972Z,16.04
2018-08-28T00:20:52.968Z,16.17
2018-08-28T00:21:59.062Z,16.28
2018-08-28T00:23:04.719Z,16.52
2018-08-28T00:24:10.960Z,16.61
2018-08-28T00:25:16.964Z,16.60
2018-08-28T00:26:24.045Z,16.47
2018-08-28T00:27:35.115Z,16.41
2018-08-28T00:28:41.240Z,16.35
2018-08-28T00:29:46.968Z,16.32
2018-08-28T00:30:53.036Z,16.32
2018-08-28T00:31:58.680Z,16.37
2018-08-28T00:33:04.412Z,16.35
2018-08-28T00:34:10.435Z,16.36
2018-08-28T00:35:16.211Z,16.37
2018-08-28T00:36:22.231Z,16.33
2018-08-28T00:37:28.260Z,16.29
2018-08-28T00:38:34.267Z,16.26
2018-08-28T00:39:40.383Z,16.24
2018-08-28T00:40:46.461Z,16.26
2018-08-28T00:41:52.567Z,16.31
2018-08-28T00:42:58.716Z,16.32
2018-08-28T00:44:05.292Z,16.37
2018-08-28T00:45:11.302Z,16.43
2018-08-28T00:46:17.409Z,16.44
2018-08-28T00:47:23.571Z,16.44
2018-08-28T00:48:29.298Z,16.44
2018-08-28T00:49:35.348Z,16.43
2018-08-28T00:50:40.991Z,16.46
2018-08-28T00:51:46.930Z,16.45
2018-08-28T00:52:57.940Z,16.46
2018-08-28T00:54:04.047Z,16.43
2018-08-28T00:55:09.861Z,16.45
2018-08-28T00:56:16.129Z,16.46
2018-08-28T00:57:22.273Z,16.47
2018-08-28T00:58:28.307Z,16.48
2018-08-28T00:59:34.288Z,16.49
2018-08-28T01:00:45.405Z,16.50
2018-08-28T01:01:51.406Z,16.50
2018-08-28T01:02:57.078Z,16.51
2018-08-28T01:04:03.214Z,16.55
2018-08-28T01:05:08.101Z,16.55
2018-08-28T01:06:14.196Z,16.56
2018-08-28T01:07:20.299Z,16.55
2018-08-28T01:08:26.452Z,16.55
2018-08-28T01:09:32.448Z,16.56
2018-08-28T01:10:38.563Z,16.59
2018-08-28T01:11:44.635Z,16.60
2018-08-28T01:12:50.648Z,16.57
2018-08-28T01:13:56.684Z,16.57
2018-08-28T01:15:06.201Z,16.59
2018-08-28T01:16:12.230Z,16.58
2018-08-28T01:17:18.341Z,16.56
2018-08-28T01:18:24.568Z,16.57
2018-08-28T01:19:30.557Z,16.59
2018-08-28T01:20:36.619Z,16.55
2018-08-28T01:21:42.564Z,16.54
2018-08-28T01:22:48.605Z,16.61
2018-08-28T01:23:54.577Z,16.62
2018-08-28T01:25:00.697Z,16.61
2018-08-28T01:26:06.459Z,16.66
2018-08-28T01:27:12.521Z,16.75
2018-08-28T01:28:18.499Z,16.88
2018-08-28T01:29:24.500Z,16.66
2018-08-28T01:30:30.276Z,16.40
2018-08-28T01:31:37.315Z,16.51
2018-08-28T01:32:43.364Z,16.48
2018-08-28T01:33:49.361Z,16.44
2018-08-28T01:34:55.323Z,16.54
2018-08-28T01:36:01.391Z,16.65
2018-08-28T01:37:07.387Z,16.58
2018-08-28T01:38:14.527Z,16.54
2018-08-28T01:39:20.508Z,16.59
2018-08-28T01:40:26.482Z,16.60
2018-08-28T01:41:32.529Z,16.62
2018-08-28T01:42:38.495Z,16.65
2018-08-28T01:43:44.531Z,16.66
2018-08-28T01:44:50.286Z,16.65
2018-08-28T01:45:56.320Z,16.66
2018-08-28T01:47:02.832Z,16.68
2018-08-28T01:48:08.945Z,16.70
2018-08-28T01:49:15.080Z,16.81
2018-08-28T01:50:20.950Z,16.82
2018-08-28T01:51:27.091Z,16.83
2018-08-28T01:52:33.062Z,16.78
2018-08-28T01:53:38.918Z,16.74
2018-08-28T01:54:44.850Z,16.75
2018-08-28T01:55:50.860Z,16.74
2018-08-28T01:56:56.776Z,16.72
2018-08-28T01:58:03.671Z,16.69
2018-08-28T01:59:09.379Z,16.69
2018-08-28T02:00:15.400Z,16.66
2018-08-28T02:01:21.462Z,16.52
2018-08-28T02:02:27.507Z,16.53
2018-08-28T02:03:33.643Z,16.62
2018-08-28T02:04:39.404Z,16.54
2018-08-28T02:05:45.463Z,16.43
2018-08-28T02:06:51.423Z,16.28
2018-08-28T02:07:58.111Z,16.21
2018-08-28T02:09:03.493Z,16.53
2018-08-28T02:10:09.584Z,16.77
2018-08-28T02:11:15.555Z,16.57
2018-08-28T02:12:21.562Z,16.52
2018-08-28T02:13:27.693Z,16.40
2018-08-28T02:14:33.732Z,16.53
2018-08-28T02:15:39.786Z,16.64
2018-08-28T02:16:45.401Z,16.54
2018-08-28T02:17:51.381Z,16.50
2018-08-28T02:18:57.286Z,16.58
2018-08-28T02:20:03.259Z,16.54
2018-08-28T02:21:09.245Z,16.54
2018-08-28T02:22:15.177Z,16.77
2018-08-28T02:23:21.301Z,16.80
2018-08-28T02:24:27.443Z,16.81
2018-08-28T02:25:33.516Z,16.90
2018-08-28T02:26:39.282Z,16.88
2018-08-28T02:27:45.639Z,16.90
2018-08-28T02:28:51.767Z,16.92
2018-08-28T02:29:57.930Z,17.25
2018-08-28T02:31:03.956Z,17.21
2018-08-28T02:32:09.945Z,17.19
2018-08-28T02:33:15.955Z,17.13
2018-08-28T02:34:23.024Z,17.18
2018-08-28T02:35:28.736Z,17.05
2018-08-28T02:36:34.701Z,17.05
2018-08-28T02:37:40.696Z,17.22
2018-08-28T02:38:46.809Z,17.20
2018-08-28T02:39:52.920Z,17.24
2018-08-28T02:40:59.030Z,17.06
2018-08-28T02:42:05.930Z,16.91
2018-08-28T02:43:13.043Z,16.95
2018-08-28T02:44:19.003Z,16.86
2018-08-28T02:45:25.115Z,16.84
2018-08-28T02:46:31.188Z,16.86
2018-08-28T02:47:37.320Z,17.03
2018-08-28T02:48:43.406Z,16.95
2018-08-28T02:49:49.452Z,16.90
2018-08-28T02:50:55.571Z,16.86
2018-08-28T02:52:01.538Z,16.85
2018-08-28T02:53:07.665Z,16.91
2018-08-28T02:54:13.431Z,16.84
2018-08-28T02:55:19.446Z,16.87
2018-08-28T02:56:25.099Z,16.89
2018-08-28T02:57:31.183Z,16.94
2018-08-28T02:58:37.763Z,17.02
2018-08-28T02:59:43.795Z,17.09
2018-08-28T03:00:49.869Z,17.16
2018-08-28T03:01:55.893Z,17.14
2018-08-28T03:03:01.715Z,17.01
2018-08-28T03:04:07.887Z,17.00
2018-08-28T03:05:13.980Z,16.99
2018-08-28T03:06:19.882Z,17.10
2018-08-28T03:07:25.931Z,17.32
2018-08-28T03:08:32.021Z,17.31
2018-08-28T03:09:38.149Z,17.11
2018-08-28T03:10:44.171Z,17.06
2018-08-28T03:11:50.165Z,17.14
2018-08-28T03:12:56.246Z,17.07
2018-08-28T03:14:02.482Z,16.92
2018-08-28T03:15:08.197Z,17.14
2018-08-28T03:16:14.258Z,17.36
2018-08-28T03:17:20.280Z,17.12
2018-08-28T03:18:26.375Z,17.09
2018-08-28T03:19:32.511Z,17.22
2018-08-28T03:20:38.144Z,17.12
2018-08-28T03:21:43.957Z,16.90
2018-08-28T03:22:49.970Z,16.82
2018-08-28T03:23:56.687Z,17.01
2018-08-28T03:25:02.739Z,17.09
2018-08-28T03:26:08.703Z,17.32
2018-08-28T03:27:14.634Z,17.42
2018-08-28T03:28:20.618Z,17.28
2018-08-28T03:29:26.720Z,17.33
2018-08-28T03:30:32.864Z,17.42
2018-08-28T03:31:39.768Z,17.45
2018-08-28T03:32:45.753Z,17.40
2018-08-28T03:33:51.756Z,17.41
2018-08-28T03:34:57.577Z,17.38
2018-08-28T03:36:03.585Z,17.26
2018-08-28T03:37:09.456Z,17.08
2018-08-28T03:38:15.496Z,16.98
2018-08-28T03:39:21.128Z,16.86
2018-08-28T03:40:27.116Z,16.91
2018-08-28T03:41:33.725Z,16.79
2018-08-28T03:42:39.803Z,16.76
2018-08-28T03:43:45.814Z,16.84
2018-08-28T03:44:51.868Z,17.10
2018-08-28T03:45:58.022Z,17.28
2018-08-28T03:47:04.743Z,17.21
2018-08-28T03:48:10.901Z,17.22
2018-08-28T03:49:17.064Z,17.23
2018-08-28T03:50:23.096Z,16.95
2018-08-28T03:51:29.214Z,16.78
2018-08-28T03:52:36.509Z,16.78
2018-08-28T03:53:52.314Z,16.67
2018-08-28T03:55:07.908Z,16.69
2018-08-28T03:56:26.156Z,16.66
2018-08-28T03:57:47.499Z,16.77
2018-08-28T03:59:01.201Z,16.74
2018-08-28T04:00:20.587Z,16.73
2018-08-28T04:01:38.973Z,16.71
2018-08-28T04:02:57.234Z,16.90
2018-08-28T04:04:13.871Z,16.88
2018-08-28T04:05:33.572Z,16.83
2018-08-28T04:06:52.072Z,16.91
2018-08-28T04:08:10.367Z,16.92
2018-08-28T04:09:28.223Z,16.87
2018-08-28T04:10:43.274Z,16.84
2018-08-28T04:11:59.958Z,17.04
2018-08-28T04:13:16.050Z,17.09
2018-08-28T04:14:33.182Z,17.04
2018-08-28T04:15:50.107Z,16.83
2018-08-28T04:17:07.609Z,16.76
2018-08-28T04:18:25.283Z,16.68
2018-08-28T04:19:35.747Z,16.68
2018-08-28T04:20:46.885Z,16.95
2018-08-28T04:21:53.000Z,16.80
2018-08-28T04:22:59.102Z,16.77
2018-08-28T04:24:04.861Z,16.81
2018-08-28T04:25:10.936Z,16.91
2018-08-28T04:26:17.223Z,16.82
2018-08-28T04:27:23.356Z,16.64
2018-08-28T04:28:29.327Z,16.55
2018-08-28T04:29:35.894Z,16.79
2018-08-28T04:30:41.860Z,16.77
2018-08-28T04:31:47.833Z,16.67
2018-08-28T04:32:53.832Z,16.60
2018-08-28T04:34:00.036Z,16.56
2018-08-28T04:35:05.709Z,16.62
2018-08-28T04:36:11.673Z,16.69
2018-08-28T04:37:17.803Z,16.59
2018-08-28T04:38:23.964Z,16.54
2018-08-28T04:39:29.974Z,16.68
2018-08-28T04:40:36.001Z,16.71
2018-08-28T04:41:42.714Z,16.74
2018-08-28T04:42:48.706Z,16.80
2018-08-28T04:43:54.810Z,16.76
2018-08-28T04:45:00.950Z,16.79
2018-08-28T04:46:07.203Z,16.73
2018-08-28T04:47:12.830Z,16.58
2018-08-28T04:48:18.595Z,16.49
2018-08-28T04:49:24.517Z,16.46
2018-08-28T04:50:30.670Z,16.49
2018-08-28T04:51:36.455Z,16.67
2018-08-28T04:52:43.220Z,16.96
2018-08-28T04:53:49.604Z,17.05
2018-08-28T04:54:55.691Z,16.98
2018-08-28T04:56:01.917Z,17.05
2018-08-28T04:57:08.000Z,17.30
2018-08-28T04:58:14.033Z,17.24
2018-08-28T04:59:20.155Z,17.19
2018-08-28T05:00:26.122Z,17.11
2018-08-28T05:01:32.253Z,17.18
2018-08-28T05:02:38.268Z,17.17
2018-08-28T05:03:44.533Z,17.11
2018-08-28T05:04:51.105Z,17.02
2018-08-28T05:05:57.183Z,17.10
2018-08-28T05:07:03.260Z,17.26
2018-08-28T05:08:08.923Z,17.29
2018-08-28T05:09:14.968Z,17.20
2018-08-28T05:10:20.980Z,17.16
2018-08-28T05:11:27.034Z,16.84
2018-08-28T05:12:32.976Z,16.70
2018-08-28T05:13:38.991Z,16.85
2018-08-28T05:14:45.010Z,16.68
2018-08-28T05:15:51.161Z,16.69
2018-08-28T05:16:57.439Z,16.62
2018-08-28T05:18:03.460Z,16.68
2018-08-28T05:19:11.517Z,16.77
2018-08-28T05:20:18.890Z,16.82
2018-08-28T05:21:25.138Z,16.92
2018-08-28T05:22:31.169Z,17.18
2018-08-28T05:23:37.176Z,17.24
2018-08-28T05:24:43.290Z,17.11
2018-08-28T05:25:49.349Z,16.93
2018-08-28T05:26:55.774Z,17.00
2018-08-28T05:28:01.653Z,17.08
2018-08-28T05:29:07.924Z,17.24
2018-08-28T05:30:13.891Z,17.24
2018-08-28T05:31:19.977Z,17.15
2018-08-28T05:32:26.041Z,17.12
2018-08-28T05:33:32.033Z,17.10
2018-08-28T05:34:37.900Z,17.03
2018-08-28T05:35:43.961Z,17.06
2018-08-28T05:36:49.694Z,17.09
2018-08-28T05:37:55.754Z,17.13
2018-08-28T05:39:01.976Z,17.08
2018-08-28T05:40:07.936Z,16.95
2018-08-28T05:41:13.963Z,16.97
2018-08-28T05:42:19.971Z,17.02
2018-08-28T05:43:26.048Z,17.11
2018-08-28T05:44:32.046Z,17.14
2018-08-28T05:45:38.188Z,17.08
2018-08-28T05:46:44.318Z,16.92
2018-08-28T05:47:50.376Z,16.94
2018-08-28T05:48:56.480Z,17.21
2018-08-28T05:50:02.597Z,17.16
2018-08-28T05:51:08.695Z,17.20
2018-08-28T05:52:14.831Z,17.30
2018-08-28T05:53:20.916Z,17.35
2018-08-28T05:54:26.955Z,17.46
2018-08-28T05:55:32.909Z,17.25
2018-08-28T05:56:39.059Z,17.31
2018-08-28T05:57:45.016Z,17.42
2018-08-28T05:58:51.068Z,17.66
2018-08-28T05:59:57.151Z,17.70
2018-08-28T06:01:03.011Z,17.69
2018-08-28T06:02:09.180Z,17.53
2018-08-28T06:03:14.962Z,17.48
2018-08-28T06:04:21.268Z,17.46
2018-08-28T06:05:27.264Z,17.58
2018-08-28T06:06:33.269Z,17.80
2018-08-28T06:07:39.384Z,17.91
2018-08-28T06:08:45.518Z,17.96
2018-08-28T06:09:51.684Z,17.92
2018-08-28T06:10:57.572Z,17.85
2018-08-28T06:12:04.100Z,17.88
2018-08-28T06:13:10.108Z,17.87
2018-08-28T06:14:16.122Z,17.65
2018-08-28T06:15:22.291Z,17.81
2018-08-28T06:16:28.346Z,17.78
2018-08-28T06:17:34.492Z,17.80
2018-08-28T06:18:40.279Z,17.72
2018-08-28T06:19:46.604Z,17.59
2018-08-28T06:20:52.827Z,17.63
2018-08-28T06:21:59.254Z,17.91
2018-08-28T06:23:04.806Z,17.99
2018-08-28T06:24:10.889Z,18.08
2018-08-28T06:25:17.170Z,17.94
2018-08-28T06:26:23.239Z,17.88
2018-08-28T06:27:29.344Z,17.98
2018-08-28T06:28:35.325Z,17.83
2018-08-28T06:29:41.427Z,18.02
2018-08-28T06:30:47.419Z,18.01
2018-08-28T06:31:53.417Z,18.19
2018-08-28T06:32:59.465Z,18.19
2018-08-28T06:34:05.259Z,18.24
2018-08-28T06:35:11.353Z,18.13
2018-08-28T06:36:17.400Z,18.32
2018-08-28T06:37:23.392Z,18.18
2018-08-28T06:38:29.569Z,18.04
2018-08-28T06:39:35.583Z,18.04
2018-08-28T06:40:42.188Z,18.06
2018-08-28T06:41:48.222Z,18.30
2018-08-28T06:42:54.266Z,18.34
2018-08-28T06:44:01.235Z,18.06
2018-08-28T06:45:07.069Z,18.09
2018-08-28T06:46:13.072Z,17.98
2018-08-28T06:47:19.083Z,18.03
2018-08-28T06:48:25.150Z,18.39
2018-08-28T06:49:31.160Z,18.39
2018-08-28T06:50:37.514Z,18.61
2018-08-28T06:51:43.239Z,18.71
2018-08-28T06:52:49.185Z,18.59
2018-08-28T06:53:55.510Z,18.60
2018-08-28T06:55:01.467Z,18.78
2018-08-28T06:56:07.543Z,18.55
2018-08-28T06:57:13.977Z,18.61
2018-08-28T06:58:19.944Z,18.47
2018-08-28T06:59:26.621Z,18.42
2018-08-28T07:00:32.626Z,18.40
2018-08-28T07:01:38.705Z,18.39
2018-08-28T07:02:44.782Z,18.52
2018-08-28T07:03:51.129Z,18.58
2018-08-28T07:04:57.260Z,18.59
2018-08-28T07:06:03.380Z,18.73
2018-08-28T07:07:09.389Z,18.72
2018-08-28T07:08:15.438Z,18.72
2018-08-28T07:09:21.500Z,18.56
2018-08-28T07:10:27.608Z,18.50
2018-08-28T07:11:33.715Z,18.43
2018-08-28T07:12:41.255Z,18.52
2018-08-28T07:13:46.950Z,18.34
2018-08-28T07:14:52.949Z,18.57
2018-08-28T07:15:58.995Z,18.89
2018-08-28T07:17:05.070Z,19.03
2018-08-28T07:18:11.212Z,18.88
2018-08-28T07:19:18.004Z,18.80
2018-08-28T07:20:24.304Z,19.01
2018-08-28T07:21:30.318Z,19.01
2018-08-28T07:22:36.461Z,19.03
2018-08-28T07:23:43.174Z,18.82
2018-08-28T07:24:49.140Z,18.89
2018-08-28T07:25:55.297Z,18.93
2018-08-28T07:27:01.460Z,19.17
2018-08-28T07:28:07.609Z,19.09
2018-08-28T07:29:13.688Z,19.26
2018-08-28T07:30:19.831Z,19.17
2018-08-28T07:31:26.003Z,19.31
2018-08-28T07:32:32.101Z,19.37
2018-08-28T07:33:38.139Z,19.29
2018-08-28T07:34:44.129Z,19.37
2018-08-28T07:35:50.440Z,19.46
2018-08-28T07:36:56.434Z,19.33
2018-08-28T07:38:02.572Z,19.31
2018-08-28T07:39:08.520Z,19.11
2018-08-28T07:40:14.432Z,19.16
2018-08-28T07:41:20.576Z,19.47
2018-08-28T07:42:26.592Z,19.55
2018-08-28T07:43:32.896Z,19.24
2018-08-28T07:44:38.869Z,19.29
2018-08-28T07:45:44.864Z,19.46
2018-08-28T07:46:51.020Z,19.66
2018-08-28T07:47:56.809Z,19.66
2018-08-28T07:49:02.904Z,19.73
2018-08-28T07:50:08.539Z,19.54
2018-08-28T07:51:14.259Z,19.30
2018-08-28T07:52:20.232Z,19.29
2018-08-28T07:53:27.109Z,19.20
2018-08-28T07:54:33.128Z,19.23
2018-08-28T07:55:39.243Z,19.53
2018-08-28T07:56:45.361Z,19.63
2018-08-28T07:57:51.349Z,19.69
2018-08-28T07:58:57.375Z,19.56
2018-08-28T08:00:03.767Z,19.46
2018-08-28T08:01:10.106Z,19.43
2018-08-28T08:02:16.400Z,19.48
2018-08-28T08:03:22.320Z,19.57
2018-08-28T08:04:28.710Z,19.97
2018-08-28T08:05:34.666Z,19.61
2018-08-28T08:06:40.723Z,19.59
2018-08-28T08:07:46.828Z,19.63
2018-08-28T08:08:52.503Z,19.77
2018-08-28T08:09:58.511Z,19.91
2018-08-28T08:11:04.655Z,19.78
2018-08-28T08:12:10.741Z,20.08
2018-08-28T08:13:16.764Z,20.22
2018-08-28T08:14:22.508Z,20.14
2018-08-28T08:15:28.614Z,19.88
2018-08-28T08:16:35.371Z,19.99
2018-08-28T08:17:41.492Z,20.22
2018-08-28T08:18:47.535Z,20.51
2018-08-28T08:19:53.561Z,20.41
2018-08-28T08:20:59.492Z,20.58
2018-08-28T08:22:05.512Z,20.43
2018-08-28T08:23:11.536Z,20.40
2018-08-28T08:24:17.655Z,20.51
2018-08-28T08:25:23.725Z,20.60
2018-08-28T08:26:29.736Z,20.78
2018-08-28T08:27:35.847Z,20.64
2018-08-28T08:28:41.876Z,20.50
2018-08-28T08:29:48.607Z,20.65
2018-08-28T08:30:54.672Z,20.65
2018-08-28T08:32:00.795Z,20.66
2018-08-28T08:33:06.603Z,20.35
2018-08-28T08:34:12.720Z,20.48
2018-08-28T08:35:18.758Z,20.64
2018-08-28T08:36:24.985Z,20.70
2018-08-28T08:37:30.755Z,20.32
2018-08-28T08:38:36.846Z,20.36
2018-08-28T08:39:42.801Z,20.46
2018-08-28T08:40:48.599Z,20.76
2018-08-28T08:41:54.278Z,20.40
2018-08-28T08:43:00.452Z,20.54
2018-08-28T08:44:07.257Z,20.79
2018-08-28T08:45:13.971Z,20.91
2018-08-28T08:46:19.647Z,20.88
2018-08-28T08:47:25.699Z,20.73
2018-08-28T08:48:32.279Z,20.68
2018-08-28T08:49:38.777Z,20.19
2018-08-28T08:50:45.064Z,20.19
2018-08-28T08:51:51.018Z,20.40
2018-08-28T08:52:57.751Z,20.63
2018-08-28T08:54:03.871Z,20.73
2018-08-28T08:55:09.629Z,21.01
2018-08-28T08:56:15.653Z,20.63
2018-08-28T08:57:21.737Z,20.52
2018-08-28T08:58:28.013Z,20.50
2018-08-28T08:59:34.000Z,20.72
2018-08-28T09:00:39.980Z,21.01
2018-08-28T09:01:46.085Z,21.28
2018-08-28T09:02:52.212Z,21.30
2018-08-28T09:03:58.447Z,21.10
2018-08-28T09:05:04.051Z,21.16
2018-08-28T09:06:10.153Z,21.22
2018-08-28T09:07:16.427Z,21.38
2018-08-28T09:08:22.694Z,21.59
2018-08-28T09:09:28.673Z,21.62
2018-08-28T09:10:35.290Z,21.64
2018-08-28T09:11:41.269Z,21.29
2018-08-28T09:12:47.429Z,21.39
2018-08-28T09:13:53.458Z,21.32
2018-08-28T09:14:59.480Z,21.27
2018-08-28T09:16:05.275Z,21.15
2018-08-28T09:17:11.319Z,20.67
2018-08-28T09:18:17.393Z,20.52
2018-08-28T09:19:23.628Z,20.93
2018-08-28T09:20:29.841Z,21.30
2018-08-28T09:21:35.932Z,21.09
2018-08-28T09:22:41.948Z,20.96
2018-08-28T09:23:48.072Z,21.18
2018-08-28T09:24:54.072Z,21.51
2018-08-28T09:26:00.346Z,21.57
2018-08-28T09:27:06.488Z,21.84
2018-08-28T09:28:12.558Z,22.01
2018-08-28T09:29:18.608Z,21.66
2018-08-28T09:30:25.090Z,21.75
2018-08-28T09:31:31.108Z,21.76
2018-08-28T09:32:37.846Z,21.14
2018-08-28T09:33:43.831Z,20.84
2018-08-28T09:34:49.947Z,21.00
2018-08-28T09:35:56.016Z,21.02
2018-08-28T09:37:02.065Z,21.01
2018-08-28T09:38:08.034Z,21.14
2018-08-28T09:39:13.827Z,21.27
2018-08-28T09:40:19.519Z,21.04
2018-08-28T09:41:30.741Z,21.16
2018-08-28T09:42:36.778Z,21.31
2018-08-28T09:43:42.956Z,20.90
2018-08-28T09:44:49.124Z,20.74
2018-08-28T09:45:55.218Z,20.81
2018-08-28T09:47:02.038Z,20.93
2018-08-28T09:48:07.806Z,21.02
2018-08-28T09:49:14.034Z,21.16
2018-08-28T09:50:20.136Z,21.19
2018-08-28T09:51:26.356Z,21.09
2018-08-28T09:52:32.354Z,20.74
2018-08-28T09:53:38.494Z,20.73
2018-08-28T09:54:44.760Z,20.74
2018-08-28T09:55:50.777Z,21.05
2018-08-28T09:56:56.792Z,20.85
2018-08-28T09:58:02.785Z,20.80
2018-08-28T09:59:09.041Z,20.80
2018-08-28T10:00:14.795Z,20.50
2018-08-28T10:01:21.077Z,20.54
2018-08-28T10:02:26.436Z,20.69
2018-08-28T10:03:32.500Z,20.94
2018-08-28T10:04:38.625Z,21.08
2018-08-28T10:05:45.625Z,21.07
2018-08-28T10:06:51.754Z,20.80
2018-08-28T10:07:57.909Z,20.87
2018-08-28T10:09:03.484Z,20.83
2018-08-28T10:10:08.803Z,21.07
2018-08-28T10:11:14.744Z,21.26
2018-08-28T10:12:20.773Z,21.39
2018-08-28T10:13:26.763Z,21.56
2018-08-28T10:14:32.899Z,21.74
2018-08-28T10:15:39.215Z,21.66
2018-08-28T10:16:45.284Z,21.90
2018-08-28T10:17:51.296Z,21.56
2018-08-28T10:18:57.403Z,21.21
2018-08-28T10:20:03.097Z,21.40
2018-08-28T10:21:09.093Z,21.62
2018-08-28T10:22:15.085Z,21.58
2018-08-28T10:23:21.038Z,21.58
2018-08-28T10:24:27.036Z,21.85
2018-08-28T10:25:33.146Z,21.91
2018-08-28T10:26:39.233Z,21.59
2018-08-28T10:27:45.240Z,21.39
2018-08-28T10:28:51.268Z,21.05
2018-08-28T10:29:57.637Z,21.05
2018-08-28T10:31:03.773Z,21.26
2018-08-28T10:32:09.758Z,21.57
2018-08-28T10:33:15.869Z,21.77
2018-08-28T10:34:21.891Z,21.89
2018-08-28T10:35:28.491Z,21.95
2018-08-28T10:36:34.604Z,21.82
2018-08-28T10:37:40.714Z,21.74
2018-08-28T10:38:46.717Z,21.80
2018-08-28T10:39:52.864Z,21.75
2018-08-28T10:40:58.940Z,21.68
2018-08-28T10:42:04.961Z,21.58
2018-08-28T10:43:11.052Z,21.78
2018-08-28T10:44:17.072Z,21.52
2018-08-28T10:45:23.192Z,21.28
2018-08-28T10:46:29.277Z,21.09
2018-08-28T10:47:35.608Z,21.24
2018-08-28T10:48:41.449Z,21.23
2018-08-28T10:49:47.500Z,21.30
2018-08-28T10:50:53.527Z,21.36
2018-08-28T10:52:00.109Z,21.26
2018-08-28T10:53:06.118Z,21.26
2018-08-28T10:54:12.279Z,21.43
2018-08-28T10:55:18.256Z,21.59
2018-08-28T10:56:24.331Z,21.71
2018-08-28T10:57:30.437Z,21.78
2018-08-28T10:58:36.503Z,21.36
2018-08-28T10:59:42.689Z,21.15
2018-08-28T11:00:48.795Z,21.20
2018-08-28T11:01:55.261Z,21.44
2018-08-28T11:03:01.383Z,21.60
2018-08-28T11:04:07.171Z,21.48
2018-08-28T11:05:13.193Z,21.54
2018-08-28T11:06:19.335Z,21.43
2018-08-28T11:07:25.316Z,21.51
2018-08-28T11:08:31.483Z,21.57
2018-08-28T11:09:37.754Z,21.79
2018-08-28T11:10:43.847Z,22.04
2018-08-28T11:11:49.832Z,21.74
2018-08-28T11:12:55.943Z,22.02
2018-08-28T11:14:02.052Z,22.16
2018-08-28T11:15:08.083Z,21.83
2018-08-28T11:16:14.293Z,21.83
2018-08-28T11:17:20.521Z,22.03
2018-08-28T11:18:26.476Z,22.20
2018-08-28T11:19:32.570Z,22.24
2018-08-28T11:20:38.740Z,22.28
2018-08-28T11:21:44.685Z,22.45
2018-08-28T11:22:50.762Z,22.44
2018-08-28T11:23:56.872Z,22.54
2018-08-28T11:25:02.800Z,22.63
2018-08-28T11:26:08.857Z,22.81
2018-08-28T11:27:14.824Z,22.94
2018-08-28T11:28:21.023Z,22.99
2018-08-28T11:29:27.091Z,23.11
2018-08-28T11:30:33.057Z,23.05
2018-08-28T11:31:39.112Z,22.95
2018-08-28T11:32:44.899Z,22.60
2018-08-28T11:33:50.985Z,22.85
2018-08-28T11:34:56.959Z,23.03
2018-08-28T11:36:03.126Z,23.16
2018-08-28T11:37:09.076Z,22.79
2018-08-28T11:38:15.272Z,22.83
2018-08-28T11:39:21.383Z,22.90
2018-08-28T11:40:27.399Z,22.95
2018-08-28T11:41:33.570Z,22.91
2018-08-28T11:42:44.128Z,23.12
2018-08-28T11:43:57.222Z,23.15
2018-08-28T11:45:15.514Z,22.84
2018-08-28T11:46:24.959Z,22.78
2018-08-28T11:47:30.975Z,22.41
2018-08-28T11:48:37.072Z,22.37
2018-08-28T11:49:43.081Z,22.82
2018-08-28T11:50:49.127Z,23.11
2018-08-28T11:51:55.079Z,23.10
2018-08-28T11:53:01.107Z,23.10
2018-08-28T11:54:07.232Z,23.16
2018-08-28T11:55:13.207Z,23.52
2018-08-28T11:56:20.079Z,23.65
2018-08-28T11:57:26.196Z,23.51
2018-08-28T11:58:32.222Z,23.68
2018-08-28T11:59:38.281Z,23.47
2018-08-28T12:00:45.024Z,23.37
2018-08-28T12:01:51.246Z,23.60
2018-08-28T12:02:57.615Z,23.24
2018-08-28T12:04:04.286Z,23.03
2018-08-28T12:05:10.331Z,23.35
2018-08-28T12:06:16.593Z,23.05
2018-08-28T12:07:22.671Z,23.50
2018-08-28T12:08:28.516Z,23.64
2018-08-28T12:09:34.535Z,23.65
2018-08-28T12:10:40.551Z,23.44
2018-08-28T12:11:46.686Z,23.38
2018-08-28T12:12:52.707Z,23.14
2018-08-28T12:13:58.678Z,23.43
2018-08-28T12:15:04.041Z,23.19
2018-08-28T12:16:10.226Z,23.71
2018-08-28T12:17:16.285Z,24.22
2018-08-28T12:18:22.315Z,23.93
2018-08-28T12:19:28.300Z,23.90
2018-08-28T12:20:34.456Z,24.36
2018-08-28T12:21:40.736Z,24.64
2018-08-28T12:22:46.780Z,24.89
2018-08-28T12:23:59.090Z,24.64
2018-08-28T12:25:04.799Z,23.99
2018-08-28T12:26:10.892Z,24.24
2018-08-28T12:27:16.877Z,24.71
2018-08-28T12:28:23.008Z,24.90
2018-08-28T12:29:29.363Z,24.33
2018-08-28T12:30:35.605Z,24.31
2018-08-28T12:31:41.629Z,24.53
2018-08-28T12:32:47.753Z,24.47
2018-08-28T12:33:53.719Z,24.31
2018-08-28T12:34:59.729Z,24.57
2018-08-28T12:36:05.830Z,24.36
2018-08-28T12:37:11.891Z,24.28
2018-08-28T12:38:18.172Z,24.35
2018-08-28T12:39:23.907Z,23.74
2018-08-28T12:40:29.935Z,24.09
2018-08-28T12:41:36.115Z,24.22
2018-08-28T12:42:42.159Z,24.03
2018-08-28T12:43:48.060Z,23.96
2018-08-28T12:44:54.172Z,24.00
2018-08-28T12:46:00.213Z,23.70
2018-08-28T12:47:06.367Z,23.45
2018-08-28T12:48:12.619Z,23.32
2018-08-28T12:49:18.712Z,23.43
2018-08-28T12:50:24.721Z,23.77
2018-08-28T12:51:30.873Z,23.36
2018-08-28T12:52:37.065Z,23.37
2018-08-28T12:53:42.581Z,23.88
2018-08-28T12:54:48.774Z,24.19
2018-08-28T12:55:54.947Z,24.60
2018-08-28T12:57:00.989Z,24.69
2018-08-28T12:58:06.983Z,24.69
2018-08-28T12:59:12.996Z,23.91
2018-08-28T13:00:18.967Z,23.29
2018-08-28T13:01:25.077Z,23.34
2018-08-28T13:02:31.507Z,23.36
2018-08-28T13:03:37.610Z,23.58
2018-08-28T13:04:44.673Z,23.91
2018-08-28T13:05:50.661Z,24.20
2018-08-28T13:06:56.672Z,24.13
2018-08-28T13:08:02.248Z,23.75
2018-08-28T13:09:08.223Z,23.65
2018-08-28T13:10:14.345Z,23.33
2018-08-28T13:11:20.344Z,23.19
2018-08-28T13:12:26.486Z,23.25
2018-08-28T13:13:32.559Z,23.42
2018-08-28T13:14:38.617Z,23.60
2018-08-28T13:15:44.804Z,23.78
2018-08-28T13:16:50.470Z,23.86
2018-08-28T13:17:56.504Z,23.71
2018-08-28T13:19:03.162Z,23.76
2018-08-28T13:20:08.949Z,23.93
2018-08-28T13:21:15.016Z,23.97
2018-08-28T13:22:21.152Z,24.06
2018-08-28T13:23:27.132Z,23.83
2018-08-28T13:24:33.164Z,23.82
2018-08-28T13:25:39.303Z,23.69
2018-08-28T13:26:45.452Z,23.65
2018-08-28T13:27:51.530Z,23.75
2018-08-28T13:28:57.528Z,23.81
2018-08-28T13:30:03.572Z,23.91
2018-08-28T13:31:09.763Z,23.86
2018-08-28T13:32:15.572Z,23.77
2018-08-28T13:33:21.560Z,23.31
2018-08-28T13:34:27.569Z,23.06
2018-08-28T13:35:33.573Z,23.34
2018-08-28T13:36:39.645Z,23.46
2018-08-28T13:37:45.618Z,23.45
2018-08-28T13:38:51.589Z,23.58
2018-08-28T13:39:57.709Z,23.53
2018-08-28T13:41:03.858Z,23.81
2018-08-28T13:42:09.959Z,24.05
2018-08-28T13:43:16.156Z,24.30
2018-08-28T13:44:22.750Z,24.62
2018-08-28T13:45:28.867Z,24.31
2018-08-28T13:46:34.896Z,23.98
2018-08-28T13:47:40.990Z,24.33
2018-08-28T13:48:46.992Z,24.45
2018-08-28T13:49:53.081Z,24.22
2018-08-28T13:50:58.706Z,24.33
2018-08-28T13:52:03.752Z,24.31
2018-08-28T13:53:10.544Z,24.23
2018-08-28T13:54:16.638Z,23.99
2018-08-28T13:55:22.770Z,23.92
2018-08-28T13:56:28.717Z,24.02
2018-08-28T13:57:34.844Z,23.94
2018-08-28T13:58:40.836Z,23.93
2018-08-28T13:59:46.929Z,24.03
2018-08-28T14:00:52.688Z,24.23
2018-08-28T14:01:58.632Z,24.52
2018-08-28T14:03:04.772Z,24.34
2018-08-28T14:04:10.750Z,23.70
2018-08-28T14:05:16.935Z,23.60
2018-08-28T14:06:23.222Z,23.79
2018-08-28T14:07:29.190Z,23.82
2018-08-28T14:08:35.173Z,24.00
2018-08-28T14:09:41.952Z,24.05
2018-08-28T14:10:47.903Z,24.09
2018-08-28T14:11:54.531Z,24.03
2018-08-28T14:13:00.614Z,23.80
2018-08-28T14:14:06.684Z,23.80
2018-08-28T14:15:12.833Z,23.59
2018-08-28T14:16:18.868Z,23.54